Time;durP1;ratioP1;P1;durP2;ratioP2;P2;SDS_P1;SDS_P2;PMS_P1;PMS_P2;Temp;Humidity;BMP_temperature;BMP_pressure;BME280_temperature;BME280_humidity;BME280_pressure;Samples;Min_cycle;Max_cycle;Signal;HPM_P1;HPM_P2
2023/01/04 00:00:28;;;;;;;11.32;3.45;;;;;;;7.27;100.00;101826.78;5028242;28;20033;-56
2023/01/04 00:02:53;;;;;;;10.18;3.50;;;;;;;7.21;100.00;101817.50;5025402;28;20065;-58
2023/01/04 00:05:19;;;;;;;14.65;4.10;;;;;;;7.22;100.00;101827.13;5025677;28;20605;-56
2023/01/04 00:07:44;;;;;;;12.25;4.20;;;;;;;7.24;100.00;101819.06;5023619;28;20048;-57
2023/01/04 00:10:09;;;;;;;12.45;3.88;;;;;;;7.25;100.00;101811.06;5021845;28;20060;-57
2023/01/04 00:12:35;;;;;;;10.48;3.70;;;;;;;7.23;100.00;101805.06;5021186;28;20029;-56
2023/01/04 00:15:01;;;;;;;9.75;3.63;;;;;;;7.21;100.00;101801.69;5029288;28;20029;-57
2023/01/04 00:17:26;;;;;;;10.48;3.70;;;;;;;7.20;100.00;101793.91;5019937;28;20032;-58
2023/01/04 00:19:51;;;;;;;10.05;3.90;;;;;;;7.20;100.00;101789.44;5022352;28;20061;-57
2023/01/04 00:22:16;;;;;;;11.68;4.05;;;;;;;7.20;100.00;101784.19;5018508;28;20087;-58
2023/01/04 00:24:42;;;;;;;10.43;4.00;;;;;;;7.17;100.00;101778.28;5028017;28;20079;-59
2023/01/04 00:27:07;;;;;;;14.63;4.35;;;;;;;7.16;100.00;101776.63;5019134;28;20414;-57
2023/01/04 00:29:32;;;;;;;11.43;3.88;;;;;;;7.18;100.00;101764.16;5030258;28;20469;-57
2023/01/04 00:31:57;;;;;;;13.23;4.03;;;;;;;7.20;100.00;101763.06;5023920;28;20041;-58
2023/01/04 00:34:23;;;;;;;11.23;3.80;;;;;;;7.21;100.00;101764.75;5020345;28;20076;-58
2023/01/04 00:36:48;;;;;;;12.30;3.92;;;;;;;7.20;100.00;101735.88;5020586;28;20052;-57
2023/01/04 00:39:15;;;;;;;11.68;3.90;;;;;;;7.18;100.00;101743.03;5024353;28;20045;-57
2023/01/04 00:41:50;;;;;;;8.35;3.80;;;;;;;7.32;100.00;101745.47;5016512;28;20053;-57
2023/01/04 00:44:16;;;;;;;10.10;3.60;;;;;;;7.23;100.00;101751.44;5023391;28;20037;-58
2023/01/04 00:46:42;;;;;;;13.05;4.20;;;;;;;7.25;100.00;101744.25;5023449;28;20073;-57
2023/01/04 00:49:10;;;;;;;9.15;3.65;;;;;;;7.26;100.00;101740.69;5027929;28;20064;-57
2023/01/04 00:51:36;;;;;;;8.20;3.88;;;;;;;7.26;100.00;101740.69;5022999;28;20582;-58
2023/01/04 00:54:05;;;;;;;8.43;3.70;;;;;;;7.29;100.00;101729.06;5020954;28;20684;-57
2023/01/04 00:56:31;;;;;;;7.93;3.70;;;;;;;7.31;100.00;101730.63;5023836;28;20055;-58
2023/01/04 00:58:58;;;;;;;9.32;3.78;;;;;;;7.35;100.00;101728.56;5024178;28;20397;-57
2023/01/04 01:01:25;;;;;;;11.82;3.38;;;;;;;7.45;100.00;101728.72;5032463;28;20037;-57
2023/01/04 01:03:55;;;;;;;8.00;3.50;;;;;;;7.52;100.00;101724.63;5031056;28;20072;-58
2023/01/04 01:06:21;;;;;;;11.35;4.38;;;;;;;7.44;100.00;101714.66;5017784;28;20036;-58
2023/01/04 01:08:46;;;;;;;8.48;3.40;;;;;;;7.43;100.00;101706.84;5025276;28;20445;-58
2023/01/04 01:11:12;;;;;;;8.35;3.40;;;;;;;7.43;100.00;101704.22;5032268;28;20095;-57
2023/01/04 01:13:38;;;;;;;4.88;2.90;;;;;;;7.45;100.00;101707.59;5026588;28;20080;-57
2023/01/04 01:16:06;;;;;;;6.07;3.30;;;;;;;7.46;100.00;101696.06;5028382;28;20109;-57
2023/01/04 01:18:37;;;;;;;9.48;3.00;;;;;;;7.47;100.00;101695.97;5024408;28;20045;-57
2023/01/04 01:21:23;;;;;;;7.25;2.83;;;;;;;7.55;100.00;101703.25;5030131;28;20057;-57
2023/01/04 01:23:49;;;;;;;8.70;3.17;;;;;;;7.53;100.00;101698.13;5032070;28;20025;-56
2023/01/04 01:26:20;;;;;;;5.38;2.78;;;;;;;7.55;100.00;101708.53;5022242;28;20528;-57
2023/01/04 01:28:46;;;;;;;6.65;2.92;;;;;;;7.54;100.00;101696.31;5029543;28;20037;-58
2023/01/04 01:31:29;;;;;;;4.97;2.70;;;;;;;7.57;100.00;101689.94;5026064;28;20107;-57
2023/01/04 01:33:56;;;;;;;5.00;2.50;;;;;;;7.61;100.00;101697.50;5021261;28;20844;-57
2023/01/04 01:36:23;;;;;;;6.60;3.10;;;;;;;7.62;100.00;101683.34;5027000;28;20048;-60
2023/01/04 01:38:49;;;;;;;9.98;3.10;;;;;;;7.58;100.00;101692.47;5020609;28;20068;-57
2023/01/04 01:41:29;;;;;;;7.40;2.92;;;;;;;7.59;100.00;101688.88;5024628;28;20053;-57
2023/01/04 01:43:56;;;;;;;6.93;3.00;;;;;;;7.55;100.00;101682.13;5031575;28;20033;-57
2023/01/04 01:46:26;;;;;;;3.50;3.10;;;;;;;7.57;100.00;101680.22;5022584;28;20049;-56
2023/01/04 01:48:55;;;;;;;8.45;2.90;;;;;;;7.54;100.00;101676.03;5028520;28;20037;-58
2023/01/04 01:51:21;;;;;;;5.72;2.90;;;;;;;7.57;100.00;101682.88;5028996;28;20029;-57
2023/01/04 01:53:51;;;;;;;5.65;3.10;;;;;;;7.54;100.00;101683.09;5019712;28;20090;-57
2023/01/04 01:56:18;;;;;;;4.75;3.00;;;;;;;7.58;100.00;101671.34;5028468;28;20079;-57
2023/01/04 01:58:48;;;;;;;5.88;2.92;;;;;;;7.57;100.00;101674.97;5022556;28;20502;-57
2023/01/04 02:01:14;;;;;;;5.47;3.00;;;;;;;7.62;100.00;101661.38;5023238;28;20473;-57
2023/01/04 02:03:42;;;;;;;6.20;3.00;;;;;;;7.61;100.00;101665.81;5018662;28;20045;-56
2023/01/04 02:06:10;;;;;;;4.20;2.70;;;;;;;7.66;100.00;101668.13;5028789;28;20037;-56
2023/01/04 02:08:38;;;;;;;3.60;2.63;;;;;;;7.67;100.00;101670.63;5026744;28;20617;-57
2023/01/04 02:11:03;;;;;;;4.18;2.83;;;;;;;7.67;100.00;101682.97;5023765;28;20559;-57
2023/01/04 02:16:23;;;;;;;5.38;2.50;;;;;;;7.80;100.00;101686.31;5025995;28;20448;-57
2023/01/04 02:19:16;;;;;;;6.22;2.67;;;;;;;7.79;100.00;101682.00;5020617;28;20052;-57
2023/01/04 02:22:21;;;;;;;4.22;2.58;;;;;;;7.73;100.00;101658.72;5018021;28;20037;-57
2023/01/04 02:24:57;;;;;;;3.22;2.40;;;;;;;7.83;100.00;101664.13;5019266;28;20030;-57
2023/01/04 02:27:53;;;;;;;4.55;2.40;;;;;;;7.80;100.00;101664.38;5025062;28;20069;-57
2023/01/04 02:30:53;;;;;;;6.00;2.47;;;;;;;7.92;100.00;101678.38;5024954;28;20079;-57
2023/01/04 02:33:24;;;;;;;2.03;1.85;;;;;;;7.98;100.00;101667.31;5020212;28;20030;-57
2023/01/04 02:36:06;;;;;;;2.83;2.42;;;;;;;7.90;100.00;101657.38;5018656;28;20111;-57
2023/01/04 02:38:37;;;;;;;4.18;2.20;;;;;;;7.90;100.00;101638.88;5016416;28;20037;-57
2023/01/04 02:41:30;;;;;;;4.80;2.40;;;;;;;7.96;100.00;101631.44;5019475;28;20030;-57
2023/01/04 02:47:05;;;;;;;2.90;2.10;;;;;;;7.97;100.00;101617.25;5029881;28;20056;-58
2023/01/04 02:50:30;;;;;;;2.75;2.17;;;;;;;8.01;100.00;101618.69;5025214;28;20026;-57
2023/01/04 02:52:25;;;;;;;5.13;2.13;;;;;;;8.05;100.00;101620.13;5010816;28;20082;-56
2023/01/04 02:54:54;;;;;;;2.47;1.98;;;;;;;8.03;100.00;101616.75;5024717;28;20021;-59
2023/01/04 02:57:42;;;;;;;3.15;2.20;;;;;;;8.07;100.00;101612.91;5022841;28;20032;-58
2023/01/04 03:00:22;;;;;;;2.20;2.00;;;;;;;8.06;100.00;101603.31;5018545;28;20033;-60
2023/01/04 03:06:18;;;;;;;2.45;2.00;;;;;;;8.12;100.00;101609.88;5027682;28;20103;-57
2023/01/04 03:09:12;;;;;;;2.65;2.08;;;;;;;8.06;100.00;101600.66;5023155;28;20040;-57
2023/01/04 03:14:34;;;;;;;2.58;1.98;;;;;;;8.10;100.00;101601.25;5026560;28;20057;-58
2023/01/04 03:17:06;;;;;;;3.53;2.15;;;;;;;8.09;100.00;101587.19;5023647;28;20032;-56
2023/01/04 03:19:50;;;;;;;2.40;2.20;;;;;;;8.24;100.00;101581.63;5021054;28;20559;-57
2023/01/04 03:36:36;;;;;;;4.03;2.60;;;;;;;8.32;100.00;101579.16;5018927;28;20511;-57
2023/01/04 03:51:00;;;;;;;4.00;2.75;;;;;;;8.37;100.00;101550.56;5042275;28;20263;-55
2023/01/04 03:53:26;;;;;;;5.35;3.25;;;;;;;8.37;100.00;101539.97;5041181;28;20032;-55
2023/01/04 03:55:54;;;;;;;3.90;2.80;;;;;;;8.41;100.00;101544.06;5045598;28;20033;-55
2023/01/04 03:58:20;;;;;;;5.50;3.15;;;;;;;8.42;100.00;101545.72;5045953;28;20123;-56
2023/01/04 04:00:46;;;;;;;4.10;2.65;;;;;;;8.43;100.00;101544.75;5043481;28;20459;-55
2023/01/04 04:03:11;;;;;;;5.75;2.90;;;;;;;8.45;100.00;101537.50;5039069;28;20026;-55
2023/01/04 04:08:26;;;;;;;5.10;3.20;;;;;;;8.44;100.00;101535.84;5044790;28;20043;-56
2023/01/04 04:10:52;;;;;;;5.43;2.88;;;;;;;8.46;100.00;101531.28;5043183;28;20041;-56
2023/01/04 04:13:18;;;;;;;3.45;3.10;;;;;;;8.48;100.00;101526.69;5046231;28;20529;-56
2023/01/04 04:15:43;;;;;;;4.97;3.10;;;;;;;8.58;100.00;101520.63;5044514;28;20104;-57
2023/01/04 04:18:08;;;;;;;4.40;2.90;;;;;;;8.58;100.00;101518.84;5047414;28;20043;-55
2023/01/04 04:20:34;;;;;;;6.35;3.08;;;;;;;8.61;100.00;101509.81;5044351;28;20710;-56
2023/01/04 04:22:59;;;;;;;4.38;3.13;;;;;;;8.59;100.00;101512.59;5043853;28;20116;-55
2023/01/04 04:25:25;;;;;;;3.58;3.00;;;;;;;8.58;100.00;101510.06;5038717;28;20469;-55
2023/01/04 04:27:50;;;;;;;4.03;3.00;;;;;;;8.63;100.00;101510.50;5044772;28;20028;-56
2023/01/04 04:30:15;;;;;;;4.57;3.20;;;;;;;8.63;100.00;101514.97;5044592;28;20112;-55
2023/01/04 04:32:41;;;;;;;6.30;3.40;;;;;;;8.63;100.00;101510.50;5041692;28;20041;-55
2023/01/04 04:35:07;;;;;;;6.85;3.42;;;;;;;8.67;100.00;101495.22;5041115;28;20030;-59
2023/01/04 04:37:33;;;;;;;5.00;3.22;;;;;;;8.66;100.00;101486.47;5040199;28;20029;-56
2023/01/04 04:39:58;;;;;;;5.65;3.30;;;;;;;8.70;100.00;101487.88;5041909;28;20049;-56
2023/01/04 04:42:24;;;;;;;5.82;3.50;;;;;;;8.75;100.00;101477.72;5042130;28;20052;-55
2023/01/04 04:44:49;;;;;;;5.60;3.40;;;;;;;8.78;100.00;101475.78;5043049;28;20057;-56
2023/01/04 04:47:14;;;;;;;5.60;3.30;;;;;;;8.83;100.00;101481.53;5043967;28;20112;-56
2023/01/04 04:49:40;;;;;;;5.50;3.50;;;;;;;8.80;100.00;101479.13;5044057;28;20033;-55
2023/01/04 04:52:06;;;;;;;4.50;3.00;;;;;;;8.97;100.00;101489.06;5033108;28;20084;-56
2023/01/04 04:54:31;;;;;;;7.88;3.40;;;;;;;8.86;100.00;101475.94;5033526;28;20447;-56
2023/01/04 04:56:56;;;;;;;5.53;3.05;;;;;;;8.91;100.00;101468.47;5027212;28;20103;-56
2023/01/04 04:59:22;;;;;;;6.50;3.30;;;;;;;8.94;100.00;101468.16;5031849;28;20712;-56
2023/01/04 05:01:47;;;;;;;5.60;3.50;;;;;;;8.98;100.00;101469.59;5028447;28;20508;-56
2023/01/04 05:04:15;;;;;;;4.95;3.47;;;;;;;8.93;100.00;101471.78;5025070;28;20026;-56
2023/01/04 05:06:46;;;;;;;7.82;3.80;;;;;;;8.97;100.00;101467.91;5026549;28;20025;-56
2023/01/04 05:09:13;;;;;;;6.28;3.30;;;;;;;8.99;100.00;101473.06;5016286;28;20106;-56
2023/01/04 05:14:22;;;;;;;8.27;3.63;;;;;;;8.96;100.00;101471.53;5028527;28;20052;-56
2023/01/04 05:16:48;;;;;;;4.20;3.10;;;;;;;9.06;100.00;101455.69;5031419;28;20033;-56
2023/01/04 05:19:13;;;;;;;6.32;3.40;;;;;;;9.06;100.00;101454.84;5031464;28;20022;-55
2023/01/04 05:21:39;;;;;;;5.07;3.30;;;;;;;9.09;100.00;101438.69;5023596;28;20026;-55
2023/01/04 05:24:05;;;;;;;7.10;2.95;;;;;;;9.10;100.00;101445.66;5023878;28;20033;-55
2023/01/04 05:26:30;;;;;;;7.82;3.30;;;;;;;9.10;100.00;101446.50;5028192;28;20478;-56
2023/01/04 05:28:56;;;;;;;5.93;3.10;;;;;;;9.08;100.00;101437.03;5030250;28;20028;-55
2023/01/04 05:31:21;;;;;;;4.82;3.25;;;;;;;9.10;100.00;101435.06;5031693;28;20524;-56
2023/01/04 05:33:46;;;;;;;9.88;3.13;;;;;;;9.19;100.00;101434.25;5021380;28;20040;-55
2023/01/04 05:36:12;;;;;;;6.03;3.10;;;;;;;9.21;100.00;101431.47;5022943;28;20033;-55
2023/01/04 05:38:37;;;;;;;4.00;2.90;;;;;;;9.21;100.00;101431.47;5028902;28;20052;-55
2023/01/04 05:41:02;;;;;;;4.90;2.97;;;;;;;9.20;100.00;101433.28;5025827;28;20033;-55
2023/01/04 05:43:28;;;;;;;5.97;3.00;;;;;;;9.25;100.00;101423.13;5026925;28;20060;-56
2023/01/04 05:45:54;;;;;;;6.82;2.88;;;;;;;9.33;100.00;101437.47;5026028;28;20108;-56
2023/01/04 05:48:21;;;;;;;5.93;2.70;;;;;;;9.33;100.00;101406.53;5031531;28;20037;-56
2023/01/04 05:50:47;;;;;;;5.03;3.00;;;;;;;9.30;100.00;101425.34;5018266;28;20037;-56
2023/01/04 05:53:13;;;;;;;7.40;3.00;;;;;;;9.27;100.00;101410.59;5026331;28;20041;-55
2023/01/04 05:55:38;;;;;;;6.13;3.00;;;;;;;9.32;100.00;101412.81;5030936;28;20385;-57
2023/01/04 05:58:04;;;;;;;3.78;2.72;;;;;;;9.33;100.00;101414.47;5030196;28;20040;-55
2023/01/04 06:00:29;;;;;;;4.03;2.70;;;;;;;9.35;100.00;101407.25;5028293;28;20061;-55
2023/01/04 06:02:55;;;;;;;6.53;2.83;;;;;;;9.37;100.00;101415.06;5026685;28;20473;-56
2023/01/04 06:05:22;;;;;;;4.78;2.70;;;;;;;9.38;100.00;101416.72;5029221;28;20029;-55
2023/01/04 06:07:47;;;;;;;3.97;2.60;;;;;;;9.37;100.00;101415.06;5024642;28;20029;-55
2023/01/04 06:10:13;;;;;;;6.20;2.50;;;;;;;9.41;100.00;101416.44;5030316;28;20539;-54
2023/01/04 06:12:39;;;;;;;5.28;2.50;;;;;;;9.52;100.00;101418.94;5028587;28;20412;-55
2023/01/04 06:15:05;;;;;;;4.68;2.47;;;;;;;9.53;100.00;101436.50;5023373;28;20044;-58
2023/01/04 06:17:31;;;;;;;5.97;2.60;;;;;;;9.51;100.00;101427.84;5024314;28;20040;-56
2023/01/04 06:19:57;;;;;;;3.63;2.50;;;;;;;9.52;100.00;101434.81;5026156;28;20515;-55
2023/01/04 06:22:22;;;;;;;3.30;2.50;;;;;;;9.56;100.00;101435.38;5031140;28;20042;-56
2023/01/04 06:24:47;;;;;;;4.60;2.58;;;;;;;9.51;100.00;101429.66;5023349;28;20030;-56
2023/01/04 06:27:13;;;;;;;5.00;2.75;;;;;;;9.51;100.00;101424.38;5025202;28;20034;-56
2023/01/04 06:29:38;;;;;;;3.72;2.60;;;;;;;9.50;100.00;101409.47;5029366;28;20025;-57
2023/01/04 06:32:03;;;;;;;3.78;2.65;;;;;;;9.45;100.00;101407.25;5028865;28;20025;-55
2023/01/04 06:34:29;;;;;;;5.70;2.58;;;;;;;9.54;100.00;101401.09;5027294;28;20040;-55
2023/01/04 06:36:54;;;;;;;4.53;2.50;;;;;;;9.55;100.00;101388.69;5027065;28;20561;-55
2023/01/04 06:39:19;;;;;;;4.53;2.70;;;;;;;9.51;100.00;101396.09;5025034;28;20125;-55
2023/01/04 06:41:45;;;;;;;4.30;2.50;;;;;;;9.49;100.00;101398.06;5029065;28;20664;-56
2023/01/04 06:44:10;;;;;;;4.35;2.67;;;;;;;9.46;100.00;101402.75;5024050;28;20523;-56
2023/01/04 06:46:35;;;;;;;4.30;2.53;;;;;;;9.44;100.00;101421.47;5026040;28;20044;-56
2023/01/04 06:49:01;;;;;;;6.40;2.50;;;;;;;9.57;100.00;101415.03;5024285;28;20029;-55
2023/01/04 06:51:26;;;;;;;2.95;2.30;;;;;;;9.53;100.00;101415.31;5025631;28;20029;-56
2023/01/04 06:53:52;;;;;;;3.75;2.33;;;;;;;9.63;100.00;101417.13;5020465;28;20044;-57
2023/01/04 06:56:18;;;;;;;4.13;2.42;;;;;;;9.53;100.00;101414.50;5020950;28;20040;-55
2023/01/04 06:58:43;;;;;;;4.10;2.35;;;;;;;9.54;100.00;101429.41;5023511;28;20618;-55
2023/01/04 07:01:09;;;;;;;3.13;2.40;;;;;;;9.60;100.00;101412.94;5015700;28;20068;-57
2023/01/04 07:03:34;;;;;;;4.22;2.50;;;;;;;9.63;100.00;101388.81;5022515;28;20029;-56
2023/01/04 07:06:04;;;;;;;2.50;2.30;;;;;;;9.65;100.00;101402.78;5016602;28;20041;-56
2023/01/04 07:08:30;;;;;;;3.53;2.30;;;;;;;9.66;100.00;101393.00;5022852;28;20478;-55
2023/01/04 07:10:55;;;;;;;3.90;2.40;;;;;;;9.65;100.00;101402.78;5024162;28;20042;-55
2023/01/04 07:13:20;;;;;;;6.85;2.30;;;;;;;9.67;100.00;101407.94;5021542;28;20052;-57
2023/01/04 07:15:46;;;;;;;3.17;2.30;;;;;;;9.81;100.00;101401.34;5019419;28;20030;-55
2023/01/04 07:18:11;;;;;;;5.25;2.58;;;;;;;9.92;100.00;101387.09;5022620;28;20116;-56
2023/01/04 07:20:37;;;;;;;4.18;2.20;;;;;;;9.85;100.00;101386.00;5015790;28;20052;-56
2023/01/04 07:23:03;;;;;;;5.35;2.40;;;;;;;10.00;100.00;101379.25;5021736;28;20033;-56
2023/01/04 07:25:28;;;;;;;4.95;2.33;;;;;;;9.95;100.00;101371.75;5023884;28;20121;-56
2023/01/04 07:27:54;;;;;;;3.40;2.15;;;;;;;10.04;100.00;101380.66;5024902;28;20462;-56
2023/01/04 07:30:21;;;;;;;3.20;2.10;;;;;;;10.07;100.00;101380.34;5021380;28;20116;-55
2023/01/04 07:32:46;;;;;;;4.68;1.90;;;;;;;10.21;100.00;101380.84;5020578;28;20030;-55
2023/01/04 07:35:12;;;;;;;3.47;2.20;;;;;;;10.06;100.00;101372.53;5021117;28;20052;-55
2023/01/04 07:37:37;;;;;;;3.75;2.13;;;;;;;10.06;100.00;101370.72;5018282;28;20041;-57
2023/01/04 07:40:03;;;;;;;3.00;1.90;;;;;;;10.13;100.00;101368.34;5021673;28;20043;-56
2023/01/04 07:42:28;;;;;;;6.13;2.30;;;;;;;10.06;100.00;101362.78;5017439;28;20047;-55
2023/01/04 07:44:54;;;;;;;3.38;2.00;;;;;;;10.20;100.00;101368.59;5020858;28;20099;-55
2023/01/04 07:47:19;;;;;;;2.13;1.90;;;;;;;10.14;100.00;101363.88;5021440;28;20041;-56
2023/01/04 07:49:47;;;;;;;4.28;1.90;;;;;;;10.13;100.00;101357.75;5021147;28;20422;-55
2023/01/04 07:52:13;;;;;;;4.85;2.15;;;;;;;10.20;100.00;101357.97;5020957;28;20038;-56
2023/01/04 07:54:38;;;;;;;3.28;2.00;;;;;;;10.20;100.00;101355.34;5021760;28;20461;-55
2023/01/04 07:57:03;;;;;;;3.08;1.90;;;;;;;10.24;100.00;101348.78;5016357;28;20057;-58
2023/01/04 07:59:28;;;;;;;6.28;2.05;;;;;;;10.25;100.00;101329.22;5022929;28;20573;-57
2023/01/04 08:01:54;;;;;;;4.88;1.98;;;;;;;10.29;100.00;101349.16;5019433;28;20030;-55
2023/01/04 08:04:22;;;;;;;3.03;2.22;;;;;;;10.36;100.00;101344.94;5023345;28;20076;-56
2023/01/04 08:06:47;;;;;;;4.72;1.90;;;;;;;10.30;100.00;101337.56;5018764;28;20052;-57
2023/01/04 08:09:13;;;;;;;5.40;2.05;;;;;;;10.33;100.00;101358.50;5017219;28;20518;-58
2023/01/04 08:11:38;;;;;;;2.78;1.92;;;;;;;10.44;100.00;101349.53;5019805;28;20041;-57
2023/01/04 08:14:03;;;;;;;5.13;2.00;;;;;;;10.36;100.00;101346.75;5024296;28;20057;-56
2023/01/04 08:16:32;;;;;;;5.85;2.17;;;;;;;10.27;100.00;101337.84;5019244;28;20109;-56
2023/01/04 08:19:03;;;;;;;4.80;2.10;;;;;;;10.34;100.00;101349.56;5019558;28;20042;-57
2023/01/04 08:21:29;;;;;;;5.35;2.00;;;;;;;10.41;100.00;101359.56;5025896;28;20044;-56
2023/01/04 08:23:55;;;;;;;4.70;1.90;;;;;;;10.45;100.00;101366.25;5021442;28;20062;-56
2023/01/04 08:26:21;;;;;;;3.67;1.85;;;;;;;10.50;100.00;101364.00;5023533;28;20140;-57
2023/01/04 08:28:47;;;;;;;8.52;2.15;;;;;;;10.43;100.00;101371.75;5016850;28;20033;-56
2023/01/04 08:31:16;;;;;;;8.95;2.13;;;;;;;10.42;100.00;101377.16;5021856;28;20045;-56
2023/01/04 08:33:42;;;;;;;7.25;2.13;;;;;;;10.52;100.00;101367.38;5023261;28;20454;-56
2023/01/04 08:36:19;;;;;;;4.32;2.25;;;;;;;10.52;100.00;101372.66;5019658;28;20116;-56
2023/01/04 08:38:46;;;;;;;6.32;2.30;;;;;;;10.51;100.00;101367.50;5022734;28;20037;-55
2023/01/04 08:41:12;;;;;;;6.70;2.28;;;;;;;10.55;100.00;101377.66;5024447;28;20069;-57
2023/01/04 08:43:37;;;;;;;4.95;2.30;;;;;;;10.54;100.00;101391.91;5022780;28;20057;-56
2023/01/04 08:46:03;;;;;;;6.38;2.08;;;;;;;10.47;100.00;101373.09;5022127;28;20495;-56
2023/01/04 08:48:30;;;;;;;3.90;2.10;;;;;;;10.59;100.00;101379.03;5025840;28;20094;-56
2023/01/04 08:51:00;;;;;;;4.13;2.10;;;;;;;10.58;100.00;101376.53;5026125;28;20117;-57
2023/01/04 08:53:26;;;;;;;5.07;1.90;;;;;;;10.63;100.00;101375.13;5030075;28;20031;-55
2023/01/04 08:55:53;;;;;;;4.65;2.20;;;;;;;10.62;100.00;101378.72;5029422;28;20025;-56
2023/01/04 08:58:18;;;;;;;6.35;2.20;;;;;;;10.62;100.00;101389.34;5028561;28;20041;-55
2023/01/04 09:00:44;;;;;;;3.72;2.00;;;;;;;10.68;100.00;101387.09;5028612;28;20022;-59
2023/01/04 09:03:09;;;;;;;4.28;1.83;;;;;;;10.68;100.00;101387.09;5017490;28;20032;-61
2023/01/04 09:05:34;;;;;;;4.88;2.13;;;;;;;10.66;100.00;101373.16;5021606;28;20027;-60
2023/01/04 09:08:00;;;;;;;5.30;2.10;;;;;;;10.67;100.00;101380.97;5026764;28;20404;-59
2023/01/04 09:10:25;;;;;;;4.72;1.98;;;;;;;10.74;100.00;101373.22;5028397;28;20029;-59
2023/01/04 09:12:51;;;;;;;5.15;2.03;;;;;;;10.78;100.00;101371.94;5031476;28;20389;-59
2023/01/04 09:15:17;;;;;;;4.30;1.92;;;;;;;10.80;100.00;101372.63;5026531;28;20046;-59
2023/01/04 09:17:42;;;;;;;5.15;2.00;;;;;;;10.79;100.00;101380.72;5030401;28;20040;-60
2023/01/04 09:20:08;;;;;;;4.22;1.80;;;;;;;10.76;100.00;101373.94;5029928;28;20033;-59
2023/01/04 09:22:33;;;;;;;5.75;2.05;;;;;;;10.75;100.00;101374.88;5027290;28;20029;-59
2023/01/04 09:24:58;;;;;;;5.43;2.03;;;;;;;10.77;100.00;101381.72;5028599;28;20087;-59
2023/01/04 09:27:23;;;;;;;5.32;1.90;;;;;;;10.91;100.00;101379.56;5030487;28;20029;-59
2023/01/04 09:29:49;;;;;;;5.97;1.95;;;;;;;10.81;100.00;101376.94;5030040;28;20414;-59
2023/01/04 09:32:14;;;;;;;4.30;1.98;;;;;;;10.79;100.00;101380.72;5029619;28;20031;-59
2023/01/04 09:34:39;;;;;;;4.03;1.80;;;;;;;10.83;100.00;101380.31;5021662;28;20106;-58
2023/01/04 09:37:05;;;;;;;4.05;2.00;;;;;;;10.84;100.00;101379.31;5026568;28;20118;-59
2023/01/04 09:39:30;;;;;;;5.15;1.90;;;;;;;10.71;100.00;101386.81;5029294;28;20384;-58
2023/01/04 09:42:02;;;;;;;5.20;2.03;;;;;;;10.76;100.00;101384.53;5021681;28;20025;-59
2023/01/04 09:44:34;;;;;;;5.28;2.17;;;;;;;10.78;100.00;101371.94;5021785;28;20054;-61
2023/01/04 09:47:12;;;;;;;7.82;2.20;;;;;;;10.72;100.00;101378.66;5015868;28;20074;-59
2023/01/04 09:49:53;;;;;;;3.38;2.03;;;;;;;10.68;100.00;101376.47;5022667;28;20034;-60
2023/01/04 09:52:47;;;;;;;6.85;2.20;;;;;;;10.59;100.00;101381.69;5023439;28;20412;-60
2023/01/04 09:55:42;;;;;;;7.10;2.33;;;;;;;10.62;100.00;101383.22;5016581;28;20057;-60
2023/01/04 09:58:20;;;;;;;6.53;2.20;;;;;;;10.52;100.00;101372.66;5029754;28;20049;-61
2023/01/04 10:00:50;;;;;;;9.88;2.97;;;;;;;10.63;100.00;101367.16;5029571;28;20464;-62
2023/01/04 10:03:27;;;;;;;5.68;2.70;;;;;;;10.66;100.00;101368.66;5032294;28;20036;-56
2023/01/04 10:05:54;;;;;;;6.70;2.50;;;;;;;10.59;100.00;101354.34;5024108;28;20033;-56
2023/01/04 10:08:20;;;;;;;6.65;2.47;;;;;;;10.56;100.00;101363.41;5020138;28;20428;-56
2023/01/04 10:11:22;;;;;;;5.10;2.50;;;;;;;10.62;100.00;101346.91;5028292;28;20022;-55
2023/01/04 10:14:10;;;;;;;4.30;2.50;;;;;;;10.68;100.00;101353.44;5025150;28;20029;-55
2023/01/04 10:16:52;;;;;;;4.25;2.50;;;;;;;10.53;100.00;101358.44;5023987;28;20033;-57
2023/01/04 10:19:33;;;;;;;6.83;2.90;;;;;;;10.47;100.00;101348.41;5024211;28;20136;-56
2023/01/04 10:22:08;;;;;;;10.80;3.10;;;;;;;10.47;100.00;101343.94;5019251;28;20136;-56
2023/01/04 10:24:51;;;;;;;5.97;2.33;;;;;;;10.62;100.00;101357.50;5021144;28;20128;-57
2023/01/04 10:27:27;;;;;;;6.53;2.70;;;;;;;10.51;100.00;101347.13;5021460;28;20489;-56
2023/01/04 10:29:58;;;;;;;8.57;3.00;;;;;;;10.53;100.00;101361.06;5024993;28;20034;-57
2023/01/04 10:32:44;;;;;;;8.27;3.00;;;;;;;10.58;100.00;101355.31;5028088;28;20037;-56
2023/01/04 10:35:21;;;;;;;7.72;2.85;;;;;;;10.62;100.00;101357.50;5026535;28;20080;-57
2023/01/04 10:37:50;;;;;;;7.00;2.90;;;;;;;10.47;100.00;101353.72;5026948;28;20044;-56
2023/01/04 10:40:17;;;;;;;6.03;2.58;;;;;;;10.48;100.00;101350.06;5030378;28;20044;-56
2023/01/04 10:42:59;;;;;;;6.53;2.65;;;;;;;10.54;100.00;101341.53;5023915;28;20049;-57
2023/01/04 10:45:42;;;;;;;7.70;3.03;;;;;;;10.49;100.00;101333.19;5023223;28;20042;-56
2023/01/04 10:48:07;;;;;;;;;;;;;;;10.75;100.00;101351.84;5023398;28;20038;-57
2023/01/04 10:51:03;;;;;;;7.07;2.90;;;;;;;10.58;100.00;101340.25;5019878;28;19924;-55
2023/01/04 10:54:09;;;;;;;9.35;3.20;;;;;;;10.59;100.00;101333.97;5007766;28;20038;-58
2023/01/04 10:56:53;;;;;;;8.88;2.75;;;;;;;10.59;100.00;101352.53;5020136;28;20033;-57
2023/01/04 10:59:42;;;;;;;8.02;2.88;;;;;;;10.55;100.00;101345.84;5019700;28;20045;-57
2023/01/04 11:02:26;;;;;;;7.15;2.70;;;;;;;10.49;100.00;101331.38;5021471;28;20343;-56
2023/01/04 11:05:28;;;;;;;6.15;2.55;;;;;;;10.65;100.00;101329.03;5019490;28;20044;-56
2023/01/04 11:08:00;;;;;;;6.00;2.40;;;;;;;10.69;100.00;101333.91;5018133;28;20101;-57
2023/01/04 11:10:30;;;;;;;6.28;2.35;;;;;;;10.53;100.00;101342.50;5020928;28;20038;-57
2023/01/04 11:12:56;;;;;;;4.38;2.30;;;;;;;10.58;100.00;101345.56;5017661;28;20037;-56
2023/01/04 11:15:21;;;;;;;4.25;2.20;;;;;;;10.52;100.00;101343.50;5018225;28;20034;-57
2023/01/04 11:17:48;;;;;;;4.65;2.10;;;;;;;10.55;100.00;101342.38;5017450;28;20033;-58
2023/01/04 11:20:13;;;;;;;4.05;2.00;;;;;;;10.57;100.00;101353.66;5015564;28;20079;-59
2023/01/04 11:22:52;;;;;;;2.53;1.80;;;;;;;10.55;100.00;101337.88;5015986;28;20520;-57
2023/01/04 11:25:20;;;;;;;6.10;2.10;;;;;;;10.60;100.00;101348.88;5015762;28;20045;-57
2023/01/04 11:27:51;;;;;;;3.10;1.65;;;;;;;10.60;100.00;101338.28;5015885;28;20041;-59
2023/01/04 11:30:23;;;;;;;2.83;1.80;;;;;;;10.67;100.00;101332.38;5013096;28;20030;-59
2023/01/04 11:33:07;;;;;;;2.67;1.80;;;;;;;10.63;100.00;101327.38;5015084;28;20079;-55
2023/01/04 11:35:51;;;;;;;1.70;1.60;;;;;;;10.61;100.00;101342.59;5011219;28;20042;-59
2023/01/04 11:38:21;;;;;;;1.77;1.58;;;;;;;10.67;100.00;101332.38;5014573;28;20030;-56
2023/01/04 11:41:00;;;;;;;3.67;1.80;;;;;;;10.67;100.00;101340.34;5013976;28;20033;-59
2023/01/04 11:43:28;;;;;;;1.75;1.60;;;;;;;10.68;100.00;101344.66;5016850;28;20062;-58
2023/01/04 11:46:01;;;;;;;1.40;1.30;;;;;;;10.68;100.00;101344.66;5022127;28;20026;-56
2023/01/04 11:48:30;;;;;;;1.60;1.50;;;;;;;10.77;100.00;101343.75;5016619;28;20096;-56
2023/01/04 11:50:55;;;;;;;1.30;1.20;;;;;;;10.73;100.00;101347.69;5019381;28;20033;-56
2023/01/04 11:53:24;;;;;;;2.10;1.50;;;;;;;10.76;100.00;101348.22;5017775;28;20037;-58
2023/01/04 11:55:50;;;;;;;1.52;1.23;;;;;;;10.64;100.00;101341.47;5018538;28;20112;-56
2023/01/04 11:58:18;;;;;;;1.80;1.40;;;;;;;10.72;100.00;101346.84;5017868;28;20061;-56
2023/01/04 12:00:55;;;;;;;1.35;1.20;;;;;;;10.69;100.00;101351.63;5016128;28;20044;-58
2023/01/04 12:03:36;;;;;;;1.45;1.35;;;;;;;10.72;100.00;101356.63;5019489;28;20029;-56
2023/01/04 12:06:02;;;;;;;1.33;1.20;;;;;;;10.75;100.00;101351.00;5016861;28;20091;-58
2023/01/04 12:08:31;;;;;;;1.08;1.08;;;;;;;10.79;100.00;101349.75;5020146;28;20030;-57
2023/01/04 12:10:58;;;;;;;1.63;1.25;;;;;;;10.73;100.00;101350.34;5021747;28;20036;-55
2023/01/04 12:13:24;;;;;;;1.77;0.98;;;;;;;10.70;100.00;101353.31;5020424;28;20044;-56
2023/01/04 12:16:27;;;;;;;1.73;1.20;;;;;;;10.65;100.00;101350.25;5016635;28;20415;-57